sensor_id;sensor_type;location;lat;lon;timestamp;pressure;altitude;pressure_sealevel;temperature;humidity
70198;BME280;57582;-34.876;138.628;2024-03-23T00:52:47;102055;;;21.76;42.44
70198;BME280;57582;-34.876;138.628;2024-03-23T00:55:48;102054;;;21.55;42.45
70198;BME280;57582;-34.876;138.628;2024-03-23T00:58:47;102056;;;21.84;41.71
70198;BME280;57582;-34.876;138.628;2024-03-23T01:01:47;102057;;;21.83;42.35
70198;BME280;57582;-34.876;138.628;2024-03-23T01:04:47;102048;;;21.30;43.22
70198;BME280;57582;-34.876;138.628;2024-03-23T01:07:48;102053;;;21.62;43.10
70198;BME280;57582;-34.876;138.628;2024-03-23T01:11:03;102051;;;21.97;42.18
70198;BME280;57582;-34.876;138.628;2024-03-23T01:13:47;102042;;;22.27;41.71
70198;BME280;57582;-34.876;138.628;2024-03-23T01:16:47;102037;;;22.52;40.24
70198;BME280;57582;-34.876;138.628;2024-03-23T01:19:48;102044;;;22.80;40.48
70198;BME280;57582;-34.876;138.628;2024-03-23T01:22:47;102047;;;22.80;40.07
70198;BME280;57582;-34.876;138.628;2024-03-23T01:25:55;102042;;;22.83;39.76
70198;BME280;57582;-34.876;138.628;2024-03-23T01:28:47;102036;;;22.97;40.96
70198;BME280;57582;-34.876;138.628;2024-03-23T01:31:48;102044;;;23.14;39.57
70198;BME280;57582;-34.876;138.628;2024-03-23T01:34:47;102035;;;22.84;40.02
70198;BME280;57582;-34.876;138.628;2024-03-23T01:37:47;102041;;;22.59;40.35
70198;BME280;57582;-34.876;138.628;2024-03-23T01:40:47;102040;;;22.82;39.61
70198;BME280;57582;-34.876;138.628;2024-03-23T01:43:48;102024;;;22.76;39.97
70198;BME280;57582;-34.876;138.628;2024-03-23T01:46:47;102031;;;22.93;39.31
70198;BME280;57582;-34.876;138.628;2024-03-23T01:49:47;102028;;;23.11;38.89
70198;BME280;57582;-34.876;138.628;2024-03-23T01:52:47;102024;;;23.28;38.46
70198;BME280;57582;-34.876;138.628;2024-03-23T01:55:48;102027;;;22.97;38.74
70198;BME280;57582;-34.876;138.628;2024-03-23T01:58:47;102018;;;23.03;38.71
70198;BME280;57582;-34.876;138.628;2024-03-23T02:01:47;102014;;;23.19;38.73
70198;BME280;57582;-34.876;138.628;2024-03-23T02:04:47;102017;;;23.30;38.61
70198;BME280;57582;-34.876;138.628;2024-03-23T02:07:48;102017;;;23.53;38.46
70198;BME280;57582;-34.876;138.628;2024-03-23T02:10:48;102003;;;23.70;36.89
70198;BME280;57582;-34.876;138.628;2024-03-23T02:13:47;102006;;;23.73;38.23
70198;BME280;57582;-34.876;138.628;2024-03-23T02:16:47;102009;;;24.05;37.90
70198;BME280;57582;-34.876;138.628;2024-03-23T02:19:48;101993;;;24.05;37.32
70198;BME280;57582;-34.876;138.628;2024-03-23T02:22:51;101994;;;24.17;36.81
70198;BME280;57582;-34.876;138.628;2024-03-23T02:25:47;101992;;;24.34;36.67
70198;BME280;57582;-34.876;138.628;2024-03-23T02:28:47;101992;;;23.98;36.06
70198;BME280;57582;-34.876;138.628;2024-03-23T02:31:48;101984;;;24.13;36.08
70198;BME280;57582;-34.876;138.628;2024-03-23T02:34:47;101992;;;23.76;36.14
70198;BME280;57582;-34.876;138.628;2024-03-23T02:37:47;101984;;;23.83;36.58
70198;BME280;57582;-34.876;138.628;2024-03-23T02:40:47;101986;;;23.89;36.84
70198;BME280;57582;-34.876;138.628;2024-03-23T02:43:48;101981;;;24.13;36.26
70198;BME280;57582;-34.876;138.628;2024-03-23T02:46:47;101971;;;24.31;36.14
70198;BME280;57582;-34.876;138.628;2024-03-23T02:49:47;101978;;;23.76;36.68
70198;BME280;57582;-34.876;138.628;2024-03-23T02:52:47;101968;;;24.13;37.50
70198;BME280;57582;-34.876;138.628;2024-03-23T02:55:48;101964;;;24.40;36.50
70198;BME280;57582;-34.876;138.628;2024-03-23T02:58:47;101956;;;24.45;36.63
70198;BME280;57582;-34.876;138.628;2024-03-23T03:01:47;101959;;;24.37;36.59
70198;BME280;57582;-34.876;138.628;2024-03-23T03:04:47;101957;;;24.49;36.10
70198;BME280;57582;-34.876;138.628;2024-03-23T03:07:48;101956;;;24.72;35.77
70198;BME280;57582;-34.876;138.628;2024-03-23T03:10:47;101949;;;24.92;36.46
70198;BME280;57582;-34.876;138.628;2024-03-23T03:13:47;101944;;;25.02;35.67
70198;BME280;57582;-34.876;138.628;2024-03-23T03:16:47;101939;;;24.98;35.94
70198;BME280;57582;-34.876;138.628;2024-03-23T03:19:48;101943;;;24.76;35.59
70198;BME280;57582;-34.876;138.628;2024-03-23T03:22:47;101928;;;24.71;34.81
70198;BME280;57582;-34.876;138.628;2024-03-23T03:25:47;101930;;;24.46;36.77
70198;BME280;57582;-34.876;138.628;2024-03-23T03:28:47;101921;;;24.69;35.96
70198;BME280;57582;-34.876;138.628;2024-03-23T03:31:48;101916;;;24.61;35.67
70198;BME280;57582;-34.876;138.628;2024-03-23T03:34:47;101900;;;24.84;36.23
70198;BME280;57582;-34.876;138.628;2024-03-23T03:37:47;101909;;;24.67;36.76
70198;BME280;57582;-34.876;138.628;2024-03-23T03:40:47;101918;;;24.83;36.81
70198;BME280;57582;-34.876;138.628;2024-03-23T03:43:48;101909;;;25.03;35.52
70198;BME280;57582;-34.876;138.628;2024-03-23T03:46:47;101908;;;25.04;35.46
70198;BME280;57582;-34.876;138.628;2024-03-23T03:49:47;101906;;;25.23;34.88
70198;BME280;57582;-34.876;138.628;2024-03-23T03:52:47;101907;;;23.83;36.39
70198;BME280;57582;-34.876;138.628;2024-03-23T03:55:48;101904;;;24.21;37.36
70198;BME280;57582;-34.876;138.628;2024-03-23T03:58:47;101901;;;24.45;35.94
70198;BME280;57582;-34.876;138.628;2024-03-23T04:01:47;101902;;;24.61;36.41
70198;BME280;57582;-34.876;138.628;2024-03-23T04:04:47;101888;;;24.79;35.17
70198;BME280;57582;-34.876;138.628;2024-03-23T04:07:48;101894;;;24.91;35.77
70198;BME280;57582;-34.876;138.628;2024-03-23T04:10:47;101893;;;25.13;35.32
70198;BME280;57582;-34.876;138.628;2024-03-23T04:13:47;101897;;;25.24;35.81
70198;BME280;57582;-34.876;138.628;2024-03-23T04:16:47;101880;;;25.45;34.42
70198;BME280;57582;-34.876;138.628;2024-03-23T04:19:48;101882;;;25.20;34.08
70198;BME280;57582;-34.876;138.628;2024-03-23T04:22:47;101874;;;25.25;33.60
70198;BME280;57582;-34.876;138.628;2024-03-23T04:25:48;101879;;;25.28;34.26
70198;BME280;57582;-34.876;138.628;2024-03-23T04:28:47;101878;;;25.47;34.06
70198;BME280;57582;-34.876;138.628;2024-03-23T04:31:48;101875;;;25.62;34.17
70198;BME280;57582;-34.876;138.628;2024-03-23T04:34:47;101876;;;25.23;33.37
70198;BME280;57582;-34.876;138.628;2024-03-23T04:37:48;101874;;;25.33;32.72
70198;BME280;57582;-34.876;138.628;2024-03-23T04:41:03;101861;;;25.40;33.48
70198;BME280;57582;-34.876;138.628;2024-03-23T04:43:48;101850;;;25.57;32.76
70198;BME280;57582;-34.876;138.628;2024-03-23T04:46:47;101848;;;25.57;32.82
70198;BME280;57582;-34.876;138.628;2024-03-23T04:49:48;101847;;;25.60;32.49
70198;BME280;57582;-34.876;138.628;2024-03-23T04:52:47;101852;;;25.70;32.69
70198;BME280;57582;-34.876;138.628;2024-03-23T04:55:48;101854;;;25.86;32.32
70198;BME280;57582;-34.876;138.628;2024-03-23T04:58:47;101847;;;25.92;31.50
70198;BME280;57582;-34.876;138.628;2024-03-23T05:01:48;101850;;;25.73;31.99
70198;BME280;57582;-34.876;138.628;2024-03-23T05:04:47;101845;;;25.72;32.46
70198;BME280;57582;-34.876;138.628;2024-03-23T05:07:48;101846;;;25.73;32.48
70198;BME280;57582;-34.876;138.628;2024-03-23T05:10:47;101851;;;25.75;32.01
70198;BME280;57582;-34.876;138.628;2024-03-23T05:13:48;101855;;;25.68;31.82
70198;BME280;57582;-34.876;138.628;2024-03-23T05:16:47;101845;;;25.57;32.22
70198;BME280;57582;-34.876;138.628;2024-03-23T05:19:48;101838;;;25.69;32.04
70198;BME280;57582;-34.876;138.628;2024-03-23T05:22:47;101828;;;25.70;32.00
70198;BME280;57582;-34.876;138.628;2024-03-23T05:25:48;101855;;;25.52;31.75
70198;BME280;57582;-34.876;138.628;2024-03-23T05:28:47;101845;;;25.51;31.51
70198;BME280;57582;-34.876;138.628;2024-03-23T05:31:49;101840;;;25.61;32.30
70198;BME280;57582;-34.876;138.628;2024-03-23T05:34:47;101830;;;25.74;32.47
70198;BME280;57582;-34.876;138.628;2024-03-23T05:37:48;101842;;;25.73;32.68
70198;BME280;57582;-34.876;138.628;2024-03-23T05:40:55;101842;;;25.75;32.78
70198;BME280;57582;-34.876;138.628;2024-03-23T05:43:49;101841;;;25.85;33.85
70198;BME280;57582;-34.876;138.628;2024-03-23T05:46:47;101833;;;25.80;33.13
70198;BME280;57582;-34.876;138.628;2024-03-23T05:49:48;101844;;;25.82;33.33
70198;BME280;57582;-34.876;138.628;2024-03-23T05:52:47;101845;;;25.84;33.30
70198;BME280;57582;-34.876;138.628;2024-03-23T05:55:48;101849;;;25.66;32.99
70198;BME280;57582;-34.876;138.628;2024-03-23T05:58:47;101847;;;25.70;33.57
70198;BME280;57582;-34.876;138.628;2024-03-23T06:01:48;101842;;;25.89;33.15
70198;BME280;57582;-34.876;138.628;2024-03-23T06:04:47;101849;;;25.94;33.11
70198;BME280;57582;-34.876;138.628;2024-03-23T06:07:48;101855;;;25.80;33.05
70198;BME280;57582;-34.876;138.628;2024-03-23T06:10:47;101853;;;25.70;32.92
70198;BME280;57582;-34.876;138.628;2024-03-23T06:13:48;101860;;;25.58;33.17
70198;BME280;57582;-34.876;138.628;2024-03-23T06:16:47;101849;;;25.71;33.46
70198;BME280;57582;-34.876;138.628;2024-03-23T06:19:48;101854;;;25.94;33.14
70198;BME280;57582;-34.876;138.628;2024-03-23T06:22:47;101865;;;25.89;32.65
70198;BME280;57582;-34.876;138.628;2024-03-23T06:25:48;101854;;;25.64;33.02
70198;BME280;57582;-34.876;138.628;2024-03-23T06:28:47;101867;;;25.47;33.11
70198;BME280;57582;-34.876;138.628;2024-03-23T06:31:53;101860;;;25.38;33.11
70198;BME280;57582;-34.876;138.628;2024-03-23T06:34:47;101865;;;24.70;33.83
70198;BME280;57582;-34.876;138.628;2024-03-23T06:37:48;101863;;;24.79;33.79
70198;BME280;57582;-34.876;138.628;2024-03-23T06:40:47;101868;;;24.81;33.44
70198;BME280;57582;-34.876;138.628;2024-03-23T06:43:48;101868;;;25.01;33.21
70198;BME280;57582;-34.876;138.628;2024-03-23T06:46:47;101863;;;25.03;33.74
70198;BME280;57582;-34.876;138.628;2024-03-23T06:49:48;101856;;;25.12;34.06
70198;BME280;57582;-34.876;138.628;2024-03-23T06:52:49;101860;;;24.98;34.17
70198;BME280;57582;-34.876;138.628;2024-03-23T06:55:52;101869;;;24.08;35.61
70198;BME280;57582;-34.876;138.628;2024-03-23T06:58:47;101872;;;23.80;36.56
70198;BME280;57582;-34.876;138.628;2024-03-23T07:01:48;101874;;;23.96;36.28
70198;BME280;57582;-34.876;138.628;2024-03-23T07:04:47;101875;;;24.02;36.11
70198;BME280;57582;-34.876;138.628;2024-03-23T07:07:48;101860;;;24.21;35.83
70198;BME280;57582;-34.876;138.628;2024-03-23T07:10:47;101868;;;24.37;35.60
70198;BME280;57582;-34.876;138.628;2024-03-23T07:13:51;101871;;;24.37;35.27
70198;BME280;57582;-34.876;138.628;2024-03-23T07:16:48;101876;;;24.37;35.72
70198;BME280;57582;-34.876;138.628;2024-03-23T07:19:48;101877;;;24.30;35.67
70198;BME280;57582;-34.876;138.628;2024-03-23T07:22:48;101876;;;24.48;35.73
70198;BME280;57582;-34.876;138.628;2024-03-23T07:26:04;101880;;;24.16;35.36
70198;BME280;57582;-34.876;138.628;2024-03-23T07:28:47;101888;;;24.10;35.48
70198;BME280;57582;-34.876;138.628;2024-03-23T07:31:48;101885;;;23.89;35.96
70198;BME280;57582;-34.876;138.628;2024-03-23T07:34:48;101894;;;23.88;36.13
70198;BME280;57582;-34.876;138.628;2024-03-23T07:37:48;101903;;;23.92;35.44
70198;BME280;57582;-34.876;138.628;2024-03-23T07:40:48;101899;;;24.02;35.45
70198;BME280;57582;-34.876;138.628;2024-03-23T07:43:48;101906;;;23.92;36.08
70198;BME280;57582;-34.876;138.628;2024-03-23T07:46:48;101903;;;23.92;36.39
70198;BME280;57582;-34.876;138.628;2024-03-23T07:49:48;101913;;;24.00;36.23
70198;BME280;57582;-34.876;138.628;2024-03-23T07:52:48;101921;;;23.94;36.24
70198;BME280;57582;-34.876;138.628;2024-03-23T07:58:48;101927;;;23.59;37.04
70198;BME280;57582;-34.876;138.628;2024-03-23T08:01:48;101936;;;23.54;37.30
70198;BME280;57582;-34.876;138.628;2024-03-23T08:04:48;101941;;;23.31;37.96
70198;BME280;57582;-34.876;138.628;2024-03-23T08:07:50;101944;;;23.25;38.43
70198;BME280;57582;-34.876;138.628;2024-03-23T08:10:49;101953;;;23.19;38.81
70198;BME280;57582;-34.876;138.628;2024-03-23T08:13:48;101957;;;22.98;39.33
70198;BME280;57582;-34.876;138.628;2024-03-23T08:16:48;101964;;;22.86;39.57
70198;BME280;57582;-34.876;138.628;2024-03-23T08:19:48;101980;;;22.79;40.12
70198;BME280;57582;-34.876;138.628;2024-03-23T08:22:48;101971;;;22.57;40.59
70198;BME280;57582;-34.876;138.628;2024-03-23T08:25:48;101989;;;22.35;41.00
70198;BME280;57582;-34.876;138.628;2024-03-23T08:28:48;101998;;;22.22;41.53
70198;BME280;57582;-34.876;138.628;2024-03-23T08:31:48;102002;;;21.71;42.63
70198;BME280;57582;-34.876;138.628;2024-03-23T08:34:48;102012;;;21.39;43.23
70198;BME280;57582;-34.876;138.628;2024-03-23T08:37:48;102009;;;21.29;43.58
70198;BME280;57582;-34.876;138.628;2024-03-23T08:40:48;102012;;;20.95;44.22
70198;BME280;57582;-34.876;138.628;2024-03-23T08:43:48;102026;;;20.64;44.84
70198;BME280;57582;-34.876;138.628;2024-03-23T08:46:48;102029;;;20.27;45.91
70198;BME280;57582;-34.876;138.628;2024-03-23T08:49:48;102041;;;20.14;46.06
70198;BME280;57582;-34.876;138.628;2024-03-23T08:52:49;102049;;;20.03;46.36
70198;BME280;57582;-34.876;138.628;2024-03-23T08:55:56;102039;;;19.93;46.53
70198;BME280;57582;-34.876;138.628;2024-03-23T08:58:48;102061;;;19.97;46.48
70198;BME280;57582;-34.876;138.628;2024-03-23T09:01:48;102059;;;19.68;46.99
70198;BME280;57582;-34.876;138.628;2024-03-23T09:04:48;102067;;;19.55;47.17
70198;BME280;57582;-34.876;138.628;2024-03-23T09:07:48;102078;;;19.31;47.68
70198;BME280;57582;-34.876;138.628;2024-03-23T09:10:48;102070;;;19.03;48.38
70198;BME280;57582;-34.876;138.628;2024-03-23T09:13:48;102070;;;18.88;48.72
70198;BME280;57582;-34.876;138.628;2024-03-23T09:16:50;102072;;;18.48;49.72
70198;BME280;57582;-34.876;138.628;2024-03-23T09:19:48;102075;;;18.61;49.51
70198;BME280;57582;-34.876;138.628;2024-03-23T09:22:48;102076;;;18.48;49.82
70198;BME280;57582;-34.876;138.628;2024-03-23T09:25:48;102075;;;18.48;49.99
70198;BME280;57582;-34.876;138.628;2024-03-23T09:28:48;102075;;;18.43;50.16
70198;BME280;57582;-34.876;138.628;2024-03-23T09:31:48;102082;;;18.43;50.37
70198;BME280;57582;-34.876;138.628;2024-03-23T09:34:48;102086;;;18.48;50.26
70198;BME280;57582;-34.876;138.628;2024-03-23T09:37:48;102088;;;18.39;50.57
70198;BME280;57582;-34.876;138.628;2024-03-23T09:40:48;102087;;;18.30;50.80
70198;BME280;57582;-34.876;138.628;2024-03-23T09:43:51;102086;;;18.36;50.82
70198;BME280;57582;-34.876;138.628;2024-03-23T09:46:48;102087;;;18.43;50.69
70198;BME280;57582;-34.876;138.628;2024-03-23T09:49:48;102090;;;18.52;50.55
70198;BME280;57582;-34.876;138.628;2024-03-23T09:52:48;102090;;;18.68;50.26
70198;BME280;57582;-34.876;138.628;2024-03-23T09:55:48;102093;;;18.83;49.70
70198;BME280;57582;-34.876;138.628;2024-03-23T09:58:48;102087;;;18.92;49.57
70198;BME280;57582;-34.876;138.628;2024-03-23T10:01:48;102096;;;19.00;49.29
70198;BME280;57582;-34.876;138.628;2024-03-23T10:04:48;102107;;;18.97;49.30
70198;BME280;57582;-34.876;138.628;2024-03-23T10:07:50;102111;;;19.06;49.13
70198;BME280;57582;-34.876;138.628;2024-03-23T10:10:48;102127;;;18.99;49.20
70198;BME280;57582;-34.876;138.628;2024-03-23T10:13:48;102129;;;19.01;49.25
70198;BME280;57582;-34.876;138.628;2024-03-23T10:16:48;102134;;;18.81;49.60
70198;BME280;57582;-34.876;138.628;2024-03-23T10:19:49;102132;;;18.85;49.44
70198;BME280;57582;-34.876;138.628;2024-03-23T10:22:48;102138;;;18.90;49.33
70198;BME280;57582;-34.876;138.628;2024-03-23T10:28:51;102140;;;18.94;49.17
70198;BME280;57582;-34.876;138.628;2024-03-23T10:31:48;102141;;;19.01;48.89
70198;BME280;57582;-34.876;138.628;2024-03-23T10:34:48;102137;;;19.09;48.62
70198;BME280;57582;-34.876;138.628;2024-03-23T10:37:48;102133;;;19.19;48.37
70198;BME280;57582;-34.876;138.628;2024-03-23T10:40:48;102134;;;19.27;47.91
70198;BME280;57582;-34.876;138.628;2024-03-23T10:43:49;102136;;;19.31;47.83
70198;BME280;57582;-34.876;138.628;2024-03-23T10:46:48;102136;;;19.36;47.75
70198;BME280;57582;-34.876;138.628;2024-03-23T10:49:48;102142;;;19.40;47.62
70198;BME280;57582;-34.876;138.628;2024-03-23T10:52:49;102141;;;19.41;47.54
70198;BME280;57582;-34.876;138.628;2024-03-23T10:55:48;102143;;;19.42;47.54
70198;BME280;57582;-34.876;138.628;2024-03-23T10:58:48;102147;;;19.44;47.29
70198;BME280;57582;-34.876;138.628;2024-03-23T11:01:56;102156;;;19.46;47.19
70198;BME280;57582;-34.876;138.628;2024-03-23T11:04:49;102154;;;19.44;47.18
70198;BME280;57582;-34.876;138.628;2024-03-23T11:07:51;102160;;;19.45;47.22
70198;BME280;57582;-34.876;138.628;2024-03-23T11:10:48;102169;;;19.44;47.19
70198;BME280;57582;-34.876;138.628;2024-03-23T11:13:48;102162;;;19.39;47.33
70198;BME280;57582;-34.876;138.628;2024-03-23T11:16:50;102163;;;19.36;47.20
70198;BME280;57582;-34.876;138.628;2024-03-23T11:20:04;102163;;;19.34;47.35
70198;BME280;57582;-34.876;138.628;2024-03-23T11:22:48;102160;;;19.26;47.44
70198;BME280;57582;-34.876;138.628;2024-03-23T11:25:48;102152;;;19.18;47.53
70198;BME280;57582;-34.876;138.628;2024-03-23T11:28:49;102151;;;19.11;47.88
70198;BME280;57582;-34.876;138.628;2024-03-23T11:31:49;102161;;;19.05;48.02
70198;BME280;57582;-34.876;138.628;2024-03-23T11:34:48;102159;;;18.97;48.20
70198;BME280;57582;-34.876;138.628;2024-03-23T11:38:00;102157;;;18.88;48.50
70198;BME280;57582;-34.876;138.628;2024-03-23T11:40:49;102160;;;18.74;48.86
70198;BME280;57582;-34.876;138.628;2024-03-23T11:43:48;102175;;;18.73;48.99
70198;BME280;57582;-34.876;138.628;2024-03-23T11:46:48;102170;;;18.72;49.17
70198;BME280;57582;-34.876;138.628;2024-03-23T11:49:48;102161;;;18.73;49.19
70198;BME280;57582;-34.876;138.628;2024-03-23T11:52:49;102173;;;18.69;49.38
70198;BME280;57582;-34.876;138.628;2024-03-23T11:55:49;102165;;;18.67;49.54
70198;BME280;57582;-34.876;138.628;2024-03-23T11:58:48;102163;;;18.69;49.53
70198;BME280;57582;-34.876;138.628;2024-03-23T12:01:48;102160;;;18.72;49.40
70198;BME280;57582;-34.876;138.628;2024-03-23T12:04:49;102158;;;18.66;49.67
70198;BME280;57582;-34.876;138.628;2024-03-23T12:07:48;102173;;;18.59;49.86
70198;BME280;57582;-34.876;138.628;2024-03-23T12:10:49;102181;;;18.54;50.07
70198;BME280;57582;-34.876;138.628;2024-03-23T12:13:48;102187;;;18.48;50.30
70198;BME280;57582;-34.876;138.628;2024-03-23T12:16:49;102188;;;18.35;50.58
70198;BME280;57582;-34.876;138.628;2024-03-23T12:19:48;102190;;;18.38;50.84
70198;BME280;57582;-34.876;138.628;2024-03-23T12:22:48;102194;;;18.39;50.81
70198;BME280;57582;-34.876;138.628;2024-03-23T12:25:48;102192;;;18.39;50.90
70198;BME280;57582;-34.876;138.628;2024-03-23T12:28:49;102182;;;18.38;50.98
70198;BME280;57582;-34.876;138.628;2024-03-23T12:31:48;102187;;;18.41;50.87
70198;BME280;57582;-34.876;138.628;2024-03-23T12:34:48;102187;;;18.41;50.64
70198;BME280;57582;-34.876;138.628;2024-03-23T12:37:48;102180;;;18.37;50.82
70198;BME280;57582;-34.876;138.628;2024-03-23T12:40:49;102179;;;18.36;50.81
70198;BME280;57582;-34.876;138.628;2024-03-23T12:43:48;102185;;;18.34;51.00
70198;BME280;57582;-34.876;138.628;2024-03-23T12:46:48;102170;;;18.12;51.17
70198;BME280;57582;-34.876;138.628;2024-03-23T12:49:48;102176;;;17.96;51.73
70198;BME280;57582;-34.876;138.628;2024-03-23T12:52:49;102172;;;17.92;51.96
70198;BME280;57582;-34.876;138.628;2024-03-23T12:55:48;102176;;;17.91;52.35
70198;BME280;57582;-34.876;138.628;2024-03-23T12:58:48;102170;;;18.02;51.84
70198;BME280;57582;-34.876;138.628;2024-03-23T13:01:48;102166;;;18.11;52.29
70198;BME280;57582;-34.876;138.628;2024-03-23T13:04:50;102177;;;18.26;51.19
70198;BME280;57582;-34.876;138.628;2024-03-23T13:07:48;102173;;;18.43;50.85
70198;BME280;57582;-34.876;138.628;2024-03-23T13:10:51;102168;;;18.69;49.49
70198;BME280;57582;-34.876;138.628;2024-03-23T13:13:48;102158;;;18.78;49.50
70198;BME280;57582;-34.876;138.628;2024-03-23T13:16:49;102152;;;18.85;49.36
70198;BME280;57582;-34.876;138.628;2024-03-23T13:19:48;102156;;;19.02;48.68
70198;BME280;57582;-34.876;138.628;2024-03-23T13:22:48;102166;;;19.12;48.37
70198;BME280;57582;-34.876;138.628;2024-03-23T13:25:52;102164;;;19.19;48.06
70198;BME280;57582;-34.876;138.628;2024-03-23T13:28:49;102174;;;19.26;48.04
70198;BME280;57582;-34.876;138.628;2024-03-23T13:31:48;102171;;;19.24;47.94
70198;BME280;57582;-34.876;138.628;2024-03-23T13:34:48;102176;;;19.21;48.22
70198;BME280;57582;-34.876;138.628;2024-03-23T13:37:48;102168;;;19.18;48.16
70198;BME280;57582;-34.876;138.628;2024-03-23T13:43:48;102161;;;19.20;48.59
70198;BME280;57582;-34.876;138.628;2024-03-23T13:46:48;102162;;;19.21;48.00
70198;BME280;57582;-34.876;138.628;2024-03-23T13:49:48;102154;;;19.16;48.08
70198;BME280;57582;-34.876;138.628;2024-03-23T13:52:49;102155;;;19.15;47.89
70198;BME280;57582;-34.876;138.628;2024-03-23T13:55:48;102147;;;19.12;48.13
70198;BME280;57582;-34.876;138.628;2024-03-23T13:58:48;102142;;;19.12;47.91
70198;BME280;57582;-34.876;138.628;2024-03-23T14:01:48;102147;;;19.15;47.75
70198;BME280;57582;-34.876;138.628;2024-03-23T14:04:49;102145;;;19.11;47.87
70198;BME280;57582;-34.876;138.628;2024-03-23T14:07:48;102148;;;19.09;47.91
70198;BME280;57582;-34.876;138.628;2024-03-23T14:10:48;102151;;;19.06;47.96
70198;BME280;57582;-34.876;138.628;2024-03-23T14:13:48;102154;;;19.01;48.03
70198;BME280;57582;-34.876;138.628;2024-03-23T14:16:49;102145;;;19.07;47.75
70198;BME280;57582;-34.876;138.628;2024-03-23T14:19:48;102148;;;19.05;47.83
70198;BME280;57582;-34.876;138.628;2024-03-23T14:22:48;102148;;;18.99;47.96
70198;BME280;57582;-34.876;138.628;2024-03-23T14:25:48;102145;;;18.96;48.15
70198;BME280;57582;-34.876;138.628;2024-03-23T14:28:49;102151;;;18.88;48.30
70198;BME280;57582;-34.876;138.628;2024-03-23T14:31:48;102142;;;18.78;48.55
70198;BME280;57582;-34.876;138.628;2024-03-23T14:34:49;102139;;;18.81;48.47
70198;BME280;57582;-34.876;138.628;2024-03-23T14:37:48;102149;;;18.74;48.74
70198;BME280;57582;-34.876;138.628;2024-03-23T14:40:49;102144;;;18.71;48.62
70198;BME280;57582;-34.876;138.628;2024-03-23T14:43:48;102142;;;18.65;48.67
70198;BME280;57582;-34.876;138.628;2024-03-23T14:46:49;102139;;;18.55;48.98
70198;BME280;57582;-34.876;138.628;2024-03-23T14:49:48;102136;;;18.58;48.86
70198;BME280;57582;-34.876;138.628;2024-03-23T14:52:49;102141;;;18.50;48.95
70198;BME280;57582;-34.876;138.628;2024-03-23T14:55:48;102139;;;18.32;49.46
70198;BME280;57582;-34.876;138.628;2024-03-23T14:58:52;102138;;;18.30;49.78
70198;BME280;57582;-34.876;138.628;2024-03-23T15:01:48;102138;;;18.25;49.92
70198;BME280;57582;-34.876;138.628;2024-03-23T15:04:49;102149;;;18.21;50.04
70198;BME280;57582;-34.876;138.628;2024-03-23T15:07:48;102148;;;18.18;50.14
70198;BME280;57582;-34.876;138.628;2024-03-23T15:10:48;102141;;;18.21;50.07
70198;BME280;57582;-34.876;138.628;2024-03-23T15:13:49;102145;;;18.24;50.09
70198;BME280;57582;-34.876;138.628;2024-03-23T15:16:49;102153;;;18.26;49.91
70198;BME280;57582;-34.876;138.628;2024-03-23T15:19:48;102141;;;18.27;49.84
70198;BME280;57582;-34.876;138.628;2024-03-23T15:22:48;102148;;;18.18;50.05
70198;BME280;57582;-34.876;138.628;2024-03-23T15:25:56;102147;;;18.14;50.34
70198;BME280;57582;-34.876;138.628;2024-03-23T15:28:49;102147;;;18.11;50.37
70198;BME280;57582;-34.876;138.628;2024-03-23T15:31:48;102150;;;18.06;50.58
70198;BME280;57582;-34.876;138.628;2024-03-23T15:34:48;102141;;;18.01;50.89
70198;BME280;57582;-34.876;138.628;2024-03-23T15:37:49;102139;;;18.00;50.95
70198;BME280;57582;-34.876;138.628;2024-03-23T15:40:52;102132;;;17.99;50.97
70198;BME280;57582;-34.876;138.628;2024-03-23T15:43:50;102129;;;17.88;51.10
70198;BME280;57582;-34.876;138.628;2024-03-23T15:46:48;102131;;;17.76;51.53
70198;BME280;57582;-34.876;138.628;2024-03-23T15:49:48;102120;;;17.72;51.60
70198;BME280;57582;-34.876;138.628;2024-03-23T15:52:49;102129;;;17.66;52.00
70198;BME280;57582;-34.876;138.628;2024-03-23T15:55:56;102116;;;17.62;52.07
70198;BME280;57582;-34.876;138.628;2024-03-23T15:58:48;102111;;;17.61;52.19
70198;BME280;57582;-34.876;138.628;2024-03-23T16:01:48;102124;;;17.57;52.11
70198;BME280;57582;-34.876;138.628;2024-03-23T16:04:50;102119;;;17.54;52.26
70198;BME280;57582;-34.876;138.628;2024-03-23T16:07:48;102119;;;17.50;52.19
70198;BME280;57582;-34.876;138.628;2024-03-23T16:10:48;102113;;;17.47;52.46
70198;BME280;57582;-34.876;138.628;2024-03-23T16:13:48;102109;;;17.48;52.48
70198;BME280;57582;-34.876;138.628;2024-03-23T16:16:49;102105;;;17.46;52.52
70198;BME280;57582;-34.876;138.628;2024-03-23T16:19:48;102100;;;17.42;52.45
70198;BME280;57582;-34.876;138.628;2024-03-23T16:22:48;102105;;;17.41;52.45
70198;BME280;57582;-34.876;138.628;2024-03-23T16:25:49;102104;;;17.35;52.68
70198;BME280;57582;-34.876;138.628;2024-03-23T16:28:49;102101;;;17.38;52.69
70198;BME280;57582;-34.876;138.628;2024-03-23T16:31:48;102086;;;17.33;52.67
70198;BME280;57582;-34.876;138.628;2024-03-23T16:34:48;102088;;;17.37;52.76
70198;BME280;57582;-34.876;138.628;2024-03-23T16:37:48;102087;;;17.38;52.91
70198;BME280;57582;-34.876;138.628;2024-03-23T16:40:57;102090;;;17.34;52.94